Lansing, MI (48909)

2:49 PM EDT on October 01, 2014 (GMT -0400)
Shaw Estates | Change Station
CLOSE
Current Station
Personal Weather Station
Location: East Lansing, MI
Elevation: 869 ft
Nearby Weather Stations

Elev 869 ft 42.73 °N, 84.54 °W | Updated 36 seconds ago

Overcast
Overcast
65.8 °F
Feels Like 65.8 °F
N
2.0
Wind Variable Wind from SSW
Gusts 7.0 mph

Today
High -- | Low -- °F
--% Chance of Precip.
Yesterday
High -- | Low -- °F
Precip. -- in
7:35 AM 7:19 PM
Waxing Crescent, 50% visible
Pressure 30.04 in
Visibility 10.0 miles
Clouds Scattered Clouds 2800 ft
Dew Point 54 °F
Humidity 65%
Rainfall 0.00 in
Snow Depth Not available.
UV 4 out of 12
Pollen 1.50 out of 12
Ozone Good
Flu Activity Not available.
SPECI KLAN 011840Z 18007KT 10SM SCT028 16/10 A3004 RMK AO2 T01610100

More Conditions Fewer Conditions

Pressure 30.04 in
Visibility 10.0 miles
Clouds Scattered Clouds 2800 ft
Dew Point 54 °F
Humidity 65%
Rainfall 0.00 in
Snow Depth Not available.
UV 4 out of 12
Pollen 1.50 out of 12
Ozone Good
Flu Activity Not available.
SPECI KLAN 011840Z 18007KT 10SM SCT028 16/10 A3004 RMK AO2 T01610100

More Conditions Fewer Conditions

10-Day Weather Forecast

Almanac

Astronomy

Oct. 01, 2014 Rise Set
Actual Time 7:35 AM EDT 7:19 PM EDT
Civil Twilight 7:07 AM EDT 7:47 PM EDT
Nautical Twilight 6:34 AM EDT 8:20 PM EDT
Astronomical Twilight 6:01 AM EDT 8:53 PM EDT
Moon 2:41 PM EDT No Moon Set
Length of Visible Light 12h 40m
Length of Day
11h 44m
Tomorrow will be 2m 52s shorter.
Waxing Crescent, 50% of the Moon is Illuminated
Today
Waxing Crescent
Oct 1
First Quarter
Oct 8
Full
Oct 15
Last Quarter
Oct 23
New

Today's Extremes

State Highs State Lows

Community

WunderPhotos

Upload Photos

1,758,010 photos uploaded!

WunderBlogs® & News

By Dr. Jeff Masters
Director of Meteorology, Weather Underground
By Kari Strenfel
Meteorologist, Weather Underground
By Christopher C. Burt
Weather Historian, Weather Underground
October 1, 2014
October 1, 2014
October 1, 2014

Nearby

Air Quality

  Air Quality AQ Index Pollutant
Yesterday Good
OZONE
Current Good
OZONE
Wednesday Good
OZONE
Wednesday Good
PM2.5
Thursday Good
OZONE
Thursday Good
PM2.5
Friday Good
OZONE
Friday Good
PM2.5
Saturday Good
OZONE
Saturday Good
PM2.5

Snow Depth

Station Depth Elevation
No new snow has been reported.

Earthquake Activity

City Distance Mag. Time & Date
No recent earthquake activity has been reported nearby.
Minimum magnitude displayed is 2.5.

Coastal Water Temperatures

Place Temperature
No Stations Reporting

Nearby Weather Stations